createdAt,value
2019-03-24T00:00:26.108Z,32.78
2019-03-24T00:02:55.648Z,32.53
2019-03-24T00:05:24.772Z,29.70
2019-03-24T00:07:56.640Z,33.50
2019-03-24T00:10:24.917Z,29.77
2019-03-24T00:12:54.007Z,30.17
2019-03-24T00:15:26.516Z,33.50
2019-03-24T00:17:54.096Z,35.85
2019-03-24T00:20:23.203Z,34.20
2019-03-24T00:22:55.682Z,34.35
2019-03-24T00:25:24.776Z,24.75
2019-03-24T00:27:53.888Z,30.57
2019-03-24T00:30:23.056Z,27.60
2019-03-24T00:32:52.179Z,30.23
2019-03-24T00:35:21.351Z,31.62
2019-03-24T00:37:50.787Z,29.50
2019-03-24T00:40:19.805Z,32.50
2019-03-24T00:42:48.923Z,33.02
2019-03-24T00:45:18.551Z,32.80
2019-03-24T00:47:49.446Z,27.98
2019-03-24T00:50:18.569Z,28.87
2019-03-24T00:52:48.158Z,27.42
2019-03-24T00:55:17.199Z,30.57
2019-03-24T00:57:47.626Z,27.77
2019-03-24T01:00:18.999Z,33.80
2019-03-24T01:02:48.010Z,31.30
2019-03-24T01:05:17.046Z,26.07
2019-03-24T01:07:46.637Z,25.50
2019-03-24T01:10:15.945Z,23.62
2019-03-24T01:12:44.945Z,21.95
2019-03-24T01:15:14.279Z,22.67
2019-03-24T01:17:43.634Z,27.32
2019-03-24T01:20:13.073Z,28.38
2019-03-24T01:22:42.161Z,30.27
2019-03-24T01:25:11.417Z,24.40
2019-03-24T01:27:40.504Z,27.15
2019-03-24T01:30:09.924Z,29.30
2019-03-24T01:32:39.236Z,19.27
2019-03-24T01:35:08.607Z,29.30
2019-03-24T01:37:37.694Z,24.07
2019-03-24T01:40:07.514Z,19.62
2019-03-24T01:42:36.624Z,27.40
2019-03-24T01:45:09.223Z,30.17
2019-03-24T01:47:38.322Z,28.73
2019-03-24T01:50:07.965Z,26.25
2019-03-24T01:52:37.260Z,22.22
2019-03-24T01:55:07.269Z,21.80
2019-03-24T01:57:36.377Z,26.37
2019-03-24T02:00:08.719Z,22.77
2019-03-24T02:02:37.832Z,24.15
2019-03-24T02:05:08.430Z,23.87
2019-03-24T02:07:37.693Z,26.80
2019-03-24T02:10:08.822Z,23.67
2019-03-24T02:12:38.105Z,29.82
2019-03-24T02:15:09.200Z,24.43
2019-03-24T02:17:38.239Z,25.08
2019-03-24T02:20:08.754Z,21.35
2019-03-24T02:22:37.903Z,25.37
2019-03-24T02:25:07.894Z,20.88
2019-03-24T02:27:36.977Z,23.73
2019-03-24T02:30:08.551Z,20.95
2019-03-24T02:32:37.658Z,27.45
2019-03-24T02:35:08.258Z,23.57
2019-03-24T02:37:37.500Z,21.12
2019-03-24T02:40:08.426Z,23.85
2019-03-24T02:42:37.535Z,28.00
2019-03-24T02:45:08.292Z,27.07
2019-03-24T02:47:37.390Z,25.02
2019-03-24T02:50:08.008Z,28.50
2019-03-24T02:52:37.564Z,25.27
2019-03-24T02:55:11.053Z,20.57
2019-03-24T02:57:40.156Z,26.23
2019-03-24T03:00:10.749Z,23.95
2019-03-24T03:02:39.828Z,20.57
2019-03-24T03:05:10.043Z,21.07
2019-03-24T03:07:39.536Z,23.50
2019-03-24T03:10:10.052Z,22.80
2019-03-24T03:12:39.260Z,32.15
2019-03-24T03:15:09.874Z,29.50
2019-03-24T03:17:38.945Z,30.08
2019-03-24T03:20:09.706Z,21.55
2019-03-24T03:22:39.160Z,29.85
2019-03-24T03:25:09.264Z,22.20
2019-03-24T03:27:38.385Z,23.90
2019-03-24T03:30:09.164Z,30.12
2019-03-24T03:32:38.594Z,29.18
2019-03-24T03:35:09.469Z,22.62
2019-03-24T03:37:38.642Z,23.65
2019-03-24T03:40:09.110Z,21.87
2019-03-24T03:42:39.669Z,20.27
2019-03-24T03:45:10.706Z,27.25
2019-03-24T03:47:40.670Z,25.77
2019-03-24T03:50:10.518Z,20.68
2019-03-24T03:52:39.657Z,26.95
2019-03-24T03:55:09.166Z,22.87
2019-03-24T03:57:38.280Z,22.17
2019-03-24T04:00:08.899Z,17.95
2019-03-24T04:02:37.993Z,25.00
2019-03-24T04:05:09.965Z,25.62
2019-03-24T04:07:39.086Z,23.05
2019-03-24T04:10:08.592Z,22.02
2019-03-24T04:12:37.926Z,26.87
2019-03-24T04:15:10.338Z,21.25
2019-03-24T04:17:39.439Z,25.15
2019-03-24T04:20:08.790Z,23.67
2019-03-24T04:22:37.912Z,26.73
2019-03-24T04:25:07.814Z,23.05
2019-03-24T04:27:36.869Z,21.20
2019-03-24T04:30:07.953Z,20.82
2019-03-24T04:32:37.056Z,22.27
2019-03-24T04:35:08.758Z,21.55
2019-03-24T04:37:37.976Z,22.55
2019-03-24T04:40:07.975Z,23.15
2019-03-24T04:42:37.087Z,23.32
2019-03-24T04:45:08.162Z,25.08
2019-03-24T04:47:37.285Z,26.70
2019-03-24T04:50:09.878Z,27.77
2019-03-24T04:52:39.028Z,24.85
2019-03-24T04:55:08.675Z,34.23
2019-03-24T04:57:37.669Z,21.85
2019-03-24T05:00:10.549Z,30.57
2019-03-24T05:02:39.612Z,24.63
2019-03-24T05:05:08.983Z,19.17
2019-03-24T05:07:38.899Z,23.07
2019-03-24T05:10:09.499Z,23.62
2019-03-24T05:12:38.605Z,33.58
2019-03-24T05:15:07.961Z,31.25
2019-03-24T05:17:37.061Z,28.12
2019-03-24T05:20:07.093Z,21.68
2019-03-24T05:22:36.510Z,21.10
2019-03-24T05:25:32.999Z,24.27
2019-03-24T05:28:02.439Z,23.42
2019-03-24T05:30:31.837Z,22.65
2019-03-24T05:33:00.965Z,22.22
2019-03-24T05:35:33.098Z,20.48
2019-03-24T05:38:02.230Z,21.20
2019-03-24T05:40:31.337Z,28.30
2019-03-24T05:43:00.386Z,28.70
2019-03-24T05:45:31.874Z,23.77
2019-03-24T05:48:01.458Z,24.23
2019-03-24T05:50:30.652Z,19.98
2019-03-24T05:52:59.847Z,27.85
2019-03-24T05:55:31.484Z,19.42
2019-03-24T05:58:00.620Z,22.85
2019-03-24T06:00:29.875Z,27.75
2019-03-24T06:02:58.952Z,20.72
2019-03-24T06:05:28.564Z,17.50
2019-03-24T06:07:57.655Z,20.62
2019-03-24T06:10:26.809Z,26.85
2019-03-24T06:12:55.968Z,23.95
2019-03-24T06:16:34.606Z,22.30
2019-03-24T06:19:03.745Z,22.50
2019-03-24T06:21:32.751Z,18.62
2019-03-24T06:24:01.792Z,31.27
2019-03-24T06:26:30.921Z,22.52
2019-03-24T06:29:00.053Z,19.45
2019-03-24T06:31:29.178Z,24.98
2019-03-24T06:33:58.490Z,23.25
2019-03-24T06:36:27.576Z,26.02
2019-03-24T06:38:56.673Z,29.67
2019-03-24T06:41:25.818Z,15.00
2019-03-24T06:43:54.907Z,19.55
2019-03-24T06:46:24.022Z,25.95
2019-03-24T06:48:53.336Z,25.75
2019-03-24T06:51:22.539Z,22.85
2019-03-24T06:53:51.646Z,24.10
2019-03-24T06:56:20.982Z,21.30
2019-03-24T06:58:50.108Z,17.42
2019-03-24T07:01:19.207Z,19.85
2019-03-24T07:03:48.635Z,25.27
2019-03-24T07:06:17.745Z,22.25
2019-03-24T07:08:46.841Z,23.12
2019-03-24T07:11:16.001Z,17.85
2019-03-24T07:13:45.099Z,20.45
2019-03-24T07:16:14.225Z,17.30
2019-03-24T07:18:43.363Z,22.85
2019-03-24T07:21:12.589Z,18.82
2019-03-24T07:23:41.599Z,23.45
2019-03-24T07:26:10.898Z,16.77
2019-03-24T07:28:40.257Z,21.00
2019-03-24T07:31:09.382Z,19.25
2019-03-24T07:33:38.692Z,22.93
2019-03-24T07:36:07.719Z,24.63
2019-03-24T07:38:36.849Z,18.82
2019-03-24T07:41:05.917Z,20.15
2019-03-24T07:43:34.913Z,22.70
2019-03-24T07:46:06.131Z,20.08
2019-03-24T07:48:35.354Z,15.72
2019-03-24T07:51:04.685Z,17.32
2019-03-24T07:53:33.739Z,32.58
2019-03-24T07:56:03.164Z,25.82
2019-03-24T07:58:32.173Z,18.52
2019-03-24T08:01:01.335Z,18.27
2019-03-24T08:03:30.549Z,19.02
2019-03-24T08:05:59.559Z,20.12
2019-03-24T08:08:28.891Z,19.87
2019-03-24T08:10:58.043Z,14.47
2019-03-24T08:13:27.155Z,19.30
2019-03-24T08:15:56.165Z,19.05
2019-03-24T08:18:30.111Z,25.23
2019-03-24T08:20:56.559Z,19.77
2019-03-24T08:23:25.672Z,20.95
2019-03-24T08:25:55.113Z,25.00
2019-03-24T08:28:24.125Z,16.37
2019-03-24T08:30:53.281Z,17.23
2019-03-24T08:33:22.773Z,18.15
2019-03-24T08:35:51.851Z,22.37
2019-03-24T08:38:20.948Z,16.35
2019-03-24T08:40:50.339Z,18.52
2019-03-24T08:43:19.636Z,22.87
2019-03-24T08:45:48.750Z,19.05
2019-03-24T08:48:18.224Z,16.20
2019-03-24T08:50:47.355Z,17.70
2019-03-24T08:53:16.461Z,18.30
2019-03-24T08:55:45.621Z,18.98
2019-03-24T08:58:15.146Z,20.60
2019-03-24T09:00:44.244Z,14.33
2019-03-24T09:03:13.423Z,17.12
2019-03-24T09:05:42.543Z,23.15
2019-03-24T09:08:11.673Z,20.88
2019-03-24T09:10:42.611Z,17.80
2019-03-24T09:13:11.725Z,20.68
2019-03-24T09:15:43.075Z,17.95
2019-03-24T09:18:12.948Z,22.35
2019-03-24T09:20:42.147Z,17.10
2019-03-24T09:23:11.429Z,16.82
2019-03-24T09:25:41.230Z,19.17
2019-03-24T09:28:10.557Z,14.03
2019-03-24T09:30:45.803Z,11.70
2019-03-24T09:33:14.942Z,12.73
2019-03-24T09:35:43.991Z,17.50
2019-03-24T09:38:13.090Z,20.45
2019-03-24T09:40:42.766Z,18.40
2019-03-24T09:43:11.910Z,13.80
2019-03-24T09:45:40.995Z,15.13
2019-03-24T09:48:12.607Z,17.50
2019-03-24T09:50:41.701Z,17.10
2019-03-24T09:53:10.827Z,20.55
2019-03-24T09:55:40.730Z,19.37
2019-03-24T09:58:09.978Z,19.90
2019-03-24T10:00:39.261Z,18.40
2019-03-24T10:03:08.562Z,16.07
2019-03-24T10:05:37.605Z,14.73
2019-03-24T10:08:06.691Z,15.72
2019-03-24T10:10:36.316Z,13.18
2019-03-24T10:13:05.436Z,14.70
2019-03-24T10:15:34.570Z,15.35
2019-03-24T10:18:04.198Z,20.43
2019-03-24T10:20:33.207Z,13.30
2019-03-24T10:23:02.406Z,14.33
2019-03-24T10:25:31.627Z,17.35
2019-03-24T10:28:00.850Z,16.27
2019-03-24T10:30:29.966Z,13.83
2019-03-24T10:33:01.566Z,11.65
2019-03-24T10:35:30.924Z,19.52
2019-03-24T10:38:00.045Z,8.20
2019-03-24T10:40:29.294Z,11.68
2019-03-24T10:42:58.407Z,9.83
2019-03-24T10:45:30.557Z,13.62
2019-03-24T10:48:00.109Z,11.70
2019-03-24T10:50:29.194Z,12.30
2019-03-24T10:52:58.234Z,11.48
2019-03-24T10:55:27.328Z,11.28
2019-03-24T10:57:56.525Z,12.58
2019-03-24T11:00:39.657Z,9.05
2019-03-24T11:03:08.785Z,10.68
2019-03-24T11:05:37.924Z,11.03
2019-03-24T11:08:07.272Z,11.53
2019-03-24T11:10:36.434Z,7.95
2019-03-24T11:13:05.639Z,10.68
2019-03-24T11:15:35.037Z,13.38
2019-03-24T11:18:04.413Z,10.98
2019-03-24T11:20:33.529Z,11.20
2019-03-24T11:23:03.004Z,9.55
2019-03-24T11:25:32.117Z,11.53
2019-03-24T11:28:01.221Z,8.13
2019-03-24T11:30:30.470Z,13.72
2019-03-24T11:32:59.561Z,11.63
2019-03-24T11:35:28.680Z,11.85
2019-03-24T11:37:57.744Z,10.30
2019-03-24T11:40:26.846Z,8.90
2019-03-24T11:42:55.994Z,13.65
2019-03-24T11:45:25.521Z,9.35
2019-03-24T11:47:54.638Z,10.25
2019-03-24T11:50:23.755Z,7.83
2019-03-24T11:52:53.449Z,10.65
2019-03-24T11:55:22.597Z,6.03
2019-03-24T11:57:51.944Z,11.50
2019-03-24T12:00:24.741Z,9.85
2019-03-24T12:02:53.971Z,7.45
2019-03-24T12:05:23.079Z,4.95
2019-03-24T12:07:52.219Z,19.42
2019-03-24T12:10:21.341Z,13.22
2019-03-24T12:12:50.716Z,7.50
2019-03-24T12:15:19.901Z,10.78
2019-03-24T12:17:49.018Z,7.97
2019-03-24T12:20:18.084Z,9.93
2019-03-24T12:22:47.220Z,10.05
2019-03-24T12:25:16.325Z,7.83
2019-03-24T12:27:45.462Z,5.58
2019-03-24T12:30:16.117Z,5.17
2019-03-24T12:32:45.275Z,7.12
2019-03-24T12:35:14.740Z,4.40
2019-03-24T12:37:43.898Z,6.58
2019-03-24T12:40:13.143Z,5.90
2019-03-24T12:42:42.475Z,8.75
2019-03-24T12:45:11.827Z,8.50
2019-03-24T12:47:40.574Z,7.15
2019-03-24T12:50:10.952Z,9.85
2019-03-24T12:52:39.785Z,9.40
2019-03-24T12:55:08.833Z,6.80
2019-03-24T12:57:37.837Z,6.42
2019-03-24T13:00:11.138Z,8.80
2019-03-24T13:02:39.901Z,7.60
2019-03-24T13:05:09.285Z,9.35
2019-03-24T13:07:38.005Z,8.65
2019-03-24T13:10:07.592Z,9.05
2019-03-24T13:12:36.363Z,9.13
2019-03-24T13:15:06.676Z,7.78
2019-03-24T13:17:35.421Z,8.53
2019-03-24T13:20:06.073Z,9.88
2019-03-24T13:22:35.563Z,10.40
2019-03-24T13:25:05.632Z,8.73
2019-03-24T13:27:34.388Z,9.30
2019-03-24T13:30:04.246Z,10.28
2019-03-24T13:32:33.219Z,5.75
2019-03-24T13:35:02.030Z,7.40
2019-03-24T13:37:31.206Z,13.48
2019-03-24T13:39:59.969Z,10.63
2019-03-24T13:42:28.660Z,10.13
2019-03-24T13:44:57.459Z,10.93
2019-03-24T13:47:26.503Z,9.48
2019-03-24T13:49:55.281Z,9.50
2019-03-24T13:52:24.368Z,9.18
2019-03-24T13:54:53.370Z,10.93
2019-03-24T13:57:22.154Z,11.40
2019-03-24T13:59:51.001Z,9.78
2019-03-24T14:02:19.937Z,11.55
2019-03-24T14:04:48.699Z,14.75
2019-03-24T14:07:17.564Z,10.35
2019-03-24T14:09:46.326Z,15.10
2019-03-24T14:12:15.167Z,15.23
2019-03-24T14:14:44.805Z,11.28
2019-03-24T14:17:13.758Z,9.68
2019-03-24T14:19:42.504Z,8.10
2019-03-24T14:22:11.245Z,8.85
2019-03-24T14:24:41.163Z,9.48
2019-03-24T14:27:09.952Z,13.25
2019-03-24T14:29:38.695Z,11.57
2019-03-24T14:32:07.800Z,13.88
2019-03-24T14:34:36.906Z,11.45
2019-03-24T14:37:06.317Z,13.35
2019-03-24T14:39:35.480Z,13.50
2019-03-24T14:42:04.918Z,12.55
2019-03-24T14:44:34.450Z,10.82
2019-03-24T14:47:03.591Z,14.05
2019-03-24T14:49:32.697Z,9.83
2019-03-24T14:52:04.407Z,12.93
2019-03-24T14:54:33.619Z,12.28
2019-03-24T14:57:02.816Z,13.48
2019-03-24T14:59:31.864Z,10.13
2019-03-24T15:02:00.890Z,13.20
2019-03-24T15:04:30.034Z,10.18
2019-03-24T15:06:59.642Z,10.95
2019-03-24T15:09:28.757Z,10.35
2019-03-24T15:11:57.906Z,5.90
2019-03-24T15:14:27.291Z,10.60
2019-03-24T15:16:56.407Z,10.72
2019-03-24T15:19:25.496Z,8.85
2019-03-24T15:21:54.666Z,9.20
2019-03-24T15:24:23.690Z,6.03
2019-03-24T15:26:52.914Z,8.25
2019-03-24T15:29:22.098Z,11.15
2019-03-24T15:31:51.220Z,8.93
2019-03-24T15:34:20.341Z,6.03
2019-03-24T15:36:49.501Z,7.28
2019-03-24T15:39:18.623Z,11.57
2019-03-24T15:41:47.753Z,10.35
2019-03-24T15:44:16.883Z,6.97
2019-03-24T15:46:45.930Z,8.73
2019-03-24T15:49:15.042Z,8.20
2019-03-24T15:51:44.122Z,7.78
2019-03-24T15:54:15.986Z,5.25
2019-03-24T15:56:45.093Z,9.50
2019-03-24T15:59:14.308Z,10.20
2019-03-24T16:01:43.750Z,8.23
2019-03-24T16:04:12.853Z,12.65
2019-03-24T16:06:42.135Z,8.33
2019-03-24T16:09:11.151Z,10.00
2019-03-24T16:11:40.290Z,11.20
2019-03-24T16:14:09.386Z,8.78
2019-03-24T16:16:38.524Z,8.03
2019-03-24T16:19:07.857Z,8.08
2019-03-24T16:21:37.293Z,8.48
2019-03-24T16:24:06.401Z,8.98
2019-03-24T16:26:35.490Z,9.45
2019-03-24T16:29:04.646Z,12.23
2019-03-24T16:31:33.669Z,9.83
2019-03-24T16:34:05.421Z,8.55
2019-03-24T16:36:34.356Z,5.62
2019-03-24T16:39:04.774Z,11.45
2019-03-24T16:41:34.151Z,8.38
2019-03-24T16:44:03.735Z,9.68
2019-03-24T16:46:32.988Z,10.10
2019-03-24T16:49:02.106Z,9.83
2019-03-24T16:51:38.366Z,7.30
2019-03-24T16:54:02.177Z,11.60
2019-03-24T16:56:31.287Z,9.78
2019-03-24T16:59:01.132Z,11.68
2019-03-24T17:01:30.308Z,11.28
2019-03-24T17:03:59.433Z,10.93
2019-03-24T17:06:28.601Z,8.65
2019-03-24T17:08:57.681Z,11.12
2019-03-24T17:11:26.917Z,9.00
2019-03-24T17:13:56.075Z,9.38
2019-03-24T17:16:25.199Z,11.65
2019-03-24T17:18:54.333Z,8.00
2019-03-24T17:21:23.539Z,10.32
2019-03-24T17:23:52.645Z,10.00
2019-03-24T17:26:21.985Z,8.28
2019-03-24T17:28:51.442Z,10.43
2019-03-24T17:31:20.499Z,12.55
2019-03-24T17:33:49.591Z,5.60
2019-03-24T17:36:18.740Z,10.38
2019-03-24T17:38:47.858Z,8.58
2019-03-24T17:41:17.360Z,9.65
2019-03-24T17:43:46.515Z,8.98
2019-03-24T17:46:15.648Z,9.75
2019-03-24T17:48:44.782Z,14.70
2019-03-24T17:51:13.932Z,11.68
2019-03-24T17:53:43.065Z,14.13
2019-03-24T17:56:12.212Z,10.45
2019-03-24T17:58:42.045Z,10.55
2019-03-24T18:01:11.192Z,11.00
2019-03-24T18:03:40.322Z,13.62
2019-03-24T18:06:09.671Z,10.95
2019-03-24T18:08:38.783Z,11.03
2019-03-24T18:11:07.971Z,13.10
2019-03-24T18:13:37.202Z,17.55
2019-03-24T18:16:06.407Z,13.10
2019-03-24T18:18:35.634Z,13.55
2019-03-24T18:21:04.953Z,13.85
2019-03-24T18:23:34.534Z,13.60
2019-03-24T18:26:04.157Z,10.28
2019-03-24T18:28:33.298Z,11.15
2019-03-24T18:31:02.562Z,8.95
2019-03-24T18:33:31.885Z,10.93
2019-03-24T18:36:00.972Z,11.12
2019-03-24T18:38:30.076Z,11.43
2019-03-24T18:40:59.530Z,12.30
2019-03-24T18:43:28.713Z,7.90
2019-03-24T18:45:57.815Z,12.50
2019-03-24T18:48:26.954Z,12.78
2019-03-24T18:50:56.683Z,11.03
2019-03-24T18:53:25.789Z,17.07
2019-03-24T18:55:54.890Z,11.60
2019-03-24T18:58:24.223Z,9.75
2019-03-24T19:00:53.357Z,12.65
2019-03-24T19:03:24.348Z,11.40
2019-03-24T19:05:53.777Z,14.18
2019-03-24T19:08:22.908Z,11.95
2019-03-24T19:10:52.109Z,11.68
2019-03-24T19:13:21.199Z,13.53
2019-03-24T19:15:50.325Z,13.13
2019-03-24T19:18:19.677Z,16.23
2019-03-24T19:20:48.836Z,10.98
2019-03-24T19:23:18.034Z,13.05
2019-03-24T19:25:51.567Z,9.48
2019-03-24T19:28:20.787Z,12.13
2019-03-24T19:30:49.908Z,7.12
2019-03-24T19:33:19.239Z,12.73
2019-03-24T19:35:48.433Z,10.65
2019-03-24T19:38:18.438Z,11.12
2019-03-24T19:40:47.543Z,11.38
2019-03-24T19:43:16.672Z,9.43
2019-03-24T19:45:45.803Z,10.63
2019-03-24T19:48:15.032Z,11.63
2019-03-24T19:50:44.149Z,12.70
2019-03-24T19:53:13.337Z,14.45
2019-03-24T19:55:42.458Z,7.22
2019-03-24T19:58:11.676Z,7.58
2019-03-24T20:00:40.951Z,11.30
2019-03-24T20:03:10.049Z,7.33
2019-03-24T20:05:39.495Z,8.78
2019-03-24T20:08:08.637Z,11.15
2019-03-24T20:10:37.756Z,9.05
2019-03-24T20:13:06.915Z,8.93
2019-03-24T20:15:36.103Z,9.80
2019-03-24T20:18:05.744Z,9.88
2019-03-24T20:20:35.389Z,9.03
2019-03-24T20:23:04.617Z,11.10
2019-03-24T20:25:33.786Z,8.08
2019-03-24T20:28:02.926Z,9.00
2019-03-24T20:30:32.059Z,12.10
2019-03-24T20:33:01.219Z,9.35
2019-03-24T20:35:30.394Z,8.35
2019-03-24T20:37:59.647Z,5.97
2019-03-24T20:40:28.762Z,8.43
2019-03-24T20:42:57.806Z,9.85
2019-03-24T20:45:26.839Z,7.15
2019-03-24T20:47:55.918Z,8.80
2019-03-24T20:50:25.321Z,8.45
2019-03-24T20:53:03.619Z,8.85
2019-03-24T20:55:25.005Z,8.70
2019-03-24T20:57:54.161Z,6.95
2019-03-24T21:00:35.256Z,5.33
2019-03-24T21:03:05.161Z,6.75
2019-03-24T21:05:34.400Z,6.00
2019-03-24T21:08:03.957Z,9.18
2019-03-24T21:10:33.185Z,7.47
2019-03-24T21:13:02.417Z,10.00
2019-03-24T21:15:31.558Z,8.15
2019-03-24T21:18:01.119Z,8.98
2019-03-24T21:20:30.387Z,13.00
2019-03-24T21:22:59.501Z,10.32
2019-03-24T21:25:28.688Z,6.78
2019-03-24T21:27:58.018Z,7.55
2019-03-24T21:30:38.580Z,4.78
2019-03-24T21:33:07.872Z,8.53
2019-03-24T21:35:36.880Z,9.88
2019-03-24T21:38:06.424Z,9.33
2019-03-24T21:40:35.455Z,6.50
2019-03-24T21:43:06.436Z,8.30
2019-03-24T21:45:35.578Z,6.25
2019-03-24T21:48:05.137Z,10.30
2019-03-24T21:50:34.248Z,8.95
2019-03-24T21:53:03.685Z,8.05
2019-03-24T21:55:33.150Z,5.28
2019-03-24T21:58:02.266Z,8.10
2019-03-24T22:00:33.685Z,4.67
2019-03-24T22:03:02.931Z,9.18
2019-03-24T22:05:32.042Z,8.80
2019-03-24T22:08:01.091Z,9.63
2019-03-24T22:10:30.223Z,8.73
2019-03-24T22:12:59.316Z,10.00
2019-03-24T22:15:28.484Z,8.15
2019-03-24T22:17:57.713Z,8.28
2019-03-24T22:20:26.831Z,9.43
2019-03-24T22:22:55.884Z,7.25
2019-03-24T22:25:25.366Z,8.65
2019-03-24T22:27:54.477Z,7.08
2019-03-24T22:30:23.658Z,6.05
2019-03-24T22:32:52.763Z,6.53
2019-03-24T22:35:21.862Z,9.78
2019-03-24T22:37:51.006Z,8.88
2019-03-24T22:40:20.119Z,9.55
2019-03-24T22:42:49.244Z,9.48
2019-03-24T22:45:18.633Z,11.15
2019-03-24T22:47:47.638Z,8.03
2019-03-24T22:50:16.781Z,9.35
2019-03-24T22:52:45.902Z,7.05
2019-03-24T22:55:15.237Z,5.67
2019-03-24T22:57:44.269Z,8.75
2019-03-24T23:00:23.099Z,8.13
2019-03-24T23:02:52.206Z,7.35
2019-03-24T23:05:21.226Z,11.00
2019-03-24T23:07:50.662Z,10.90
2019-03-24T23:10:19.782Z,12.25
2019-03-24T23:12:49.457Z,9.13
2019-03-24T23:15:18.767Z,9.98
2019-03-24T23:17:47.877Z,8.63
2019-03-24T23:20:16.989Z,8.15
2019-03-24T23:22:46.526Z,9.43
2019-03-24T23:25:15.771Z,6.62
2019-03-24T23:27:44.806Z,10.08
2019-03-24T23:30:14.935Z,11.18
2019-03-24T23:32:44.037Z,9.83
2019-03-24T23:35:13.204Z,6.75
2019-03-24T23:37:42.343Z,7.55
2019-03-24T23:40:11.760Z,8.03
2019-03-24T23:42:40.867Z,7.42
2019-03-24T23:45:11.138Z,10.58
2019-03-24T23:47:40.622Z,7.03
2019-03-24T23:50:09.961Z,8.58
2019-03-24T23:52:39.780Z,9.15
2019-03-24T23:55:09.095Z,7.42
2019-03-24T23:57:38.220Z,9.48
